createdAt,value
2023-04-20T00:00:22.005Z,9.92
2023-04-20T00:02:48.499Z,10.71
2023-04-20T00:05:15.045Z,10.55
2023-04-20T00:07:41.485Z,10.13
2023-04-20T00:10:07.899Z,10.83
2023-04-20T00:12:34.283Z,11.67
2023-04-20T00:15:00.707Z,12.49
2023-04-20T00:17:27.150Z,12.25
2023-04-20T00:19:53.534Z,11.95
2023-04-20T00:22:19.909Z,12.92
2023-04-20T00:24:46.324Z,13.37
2023-04-20T00:27:12.710Z,12.54
2023-04-20T00:29:41.882Z,13.95
2023-04-20T00:32:08.280Z,12.56
2023-04-20T00:34:34.671Z,11.55
2023-04-20T00:37:01.076Z,12.14
2023-04-20T00:39:27.456Z,11.73
2023-04-20T00:41:53.839Z,11.72
2023-04-20T00:44:20.238Z,11.33
2023-04-20T00:46:46.623Z,11.29
2023-04-20T00:49:13.025Z,11.00
2023-04-20T00:51:39.373Z,11.36
2023-04-20T00:54:05.739Z,11.34
2023-04-20T00:56:32.124Z,11.75
2023-04-20T00:58:58.482Z,11.68
2023-04-20T01:01:24.905Z,11.52
2023-04-20T01:03:51.413Z,11.87
2023-04-20T01:06:17.835Z,11.48
2023-04-20T01:08:44.215Z,12.14
2023-04-20T01:11:10.614Z,12.41
2023-04-20T01:13:37.042Z,12.53
2023-04-20T01:16:03.598Z,12.69
2023-04-20T01:18:30.006Z,12.70
2023-04-20T01:20:56.441Z,12.45
2023-04-20T01:23:22.905Z,12.59
2023-04-20T01:25:49.293Z,13.01
2023-04-20T01:28:15.711Z,12.75
2023-04-20T01:30:42.150Z,12.34
2023-04-20T01:33:08.541Z,12.30
2023-04-20T01:35:34.963Z,11.87
2023-04-20T01:38:01.341Z,11.61
2023-04-20T01:40:27.756Z,11.77
2023-04-20T01:42:54.130Z,11.10
2023-04-20T01:45:20.505Z,10.87
2023-04-20T01:47:46.954Z,10.86
2023-04-20T01:50:13.367Z,11.16
2023-04-20T01:52:39.785Z,11.73
2023-04-20T01:55:06.206Z,10.51
2023-04-20T01:57:32.585Z,10.61
2023-04-20T01:59:58.969Z,9.96
2023-04-20T02:02:25.494Z,10.49
2023-04-20T02:04:51.933Z,10.06
2023-04-20T02:07:18.351Z,9.92
2023-04-20T02:09:44.820Z,9.82
2023-04-20T02:12:11.218Z,9.70
2023-04-20T02:14:37.719Z,9.69
2023-04-20T02:17:04.120Z,8.92
2023-04-20T02:19:30.515Z,8.70
2023-04-20T02:21:56.884Z,8.82
2023-04-20T02:24:23.358Z,8.50
2023-04-20T02:26:49.849Z,8.40
2023-04-20T02:29:16.403Z,8.05
2023-04-20T02:31:43.103Z,8.39
2023-04-20T02:34:09.700Z,8.41
2023-04-20T02:36:36.115Z,8.24
2023-04-20T02:39:02.469Z,8.35
2023-04-20T02:41:28.828Z,8.37
2023-04-20T02:43:55.232Z,8.34
2023-04-20T02:46:21.632Z,8.18
2023-04-20T02:48:48.045Z,8.15
2023-04-20T02:51:14.451Z,8.54
2023-04-20T02:53:40.836Z,8.24
2023-04-20T02:56:07.245Z,8.09
2023-04-20T02:58:33.672Z,8.26
2023-04-20T03:01:00.068Z,8.39
2023-04-20T03:03:26.685Z,8.34
2023-04-20T03:05:53.291Z,8.57
2023-04-20T03:08:19.705Z,8.23
2023-04-20T03:10:46.125Z,8.96
2023-04-20T03:13:12.533Z,8.26
2023-04-20T03:15:41.985Z,8.07
2023-04-20T03:18:08.402Z,8.48
2023-04-20T03:20:34.849Z,8.57
2023-04-20T03:23:01.270Z,7.70
2023-04-20T03:25:27.651Z,7.73
2023-04-20T03:27:54.037Z,7.85
2023-04-20T03:30:20.394Z,7.79
2023-04-20T03:32:46.934Z,7.28
2023-04-20T03:35:13.384Z,7.63
2023-04-20T03:37:39.767Z,7.19
2023-04-20T03:40:06.162Z,7.50
2023-04-20T03:42:32.563Z,7.26
2023-04-20T03:44:58.931Z,7.15
2023-04-20T03:47:25.359Z,7.17
2023-04-20T03:49:51.769Z,7.09
2023-04-20T03:52:18.141Z,7.22
2023-04-20T03:54:44.517Z,7.13
2023-04-20T03:57:10.911Z,7.23
2023-04-20T03:59:37.289Z,7.04
2023-04-20T04:02:03.706Z,6.90
2023-04-20T04:04:30.620Z,6.74
2023-04-20T04:06:57.183Z,6.73
2023-04-20T04:09:23.574Z,6.92
2023-04-20T04:11:49.968Z,6.62
2023-04-20T04:14:16.377Z,6.65
2023-04-20T04:16:42.827Z,7.49
2023-04-20T04:19:09.357Z,7.83
2023-04-20T04:21:35.743Z,6.34
2023-04-20T04:24:02.086Z,6.34
2023-04-20T04:26:28.861Z,6.50
2023-04-20T04:28:55.215Z,6.55
2023-04-20T04:31:21.764Z,6.66
2023-04-20T04:33:48.411Z,6.38
2023-04-20T04:36:14.811Z,6.20
2023-04-20T04:38:41.288Z,6.46
2023-04-20T04:41:07.700Z,6.78
2023-04-20T04:43:34.085Z,6.15
2023-04-20T04:46:00.485Z,6.38
2023-04-20T04:48:26.886Z,6.25
2023-04-20T04:50:53.281Z,6.20
2023-04-20T04:53:19.722Z,6.51
2023-04-20T04:55:46.115Z,6.06
2023-04-20T04:58:12.467Z,6.14
2023-04-20T05:00:38.819Z,6.08
2023-04-20T05:03:05.369Z,5.80
2023-04-20T05:05:31.935Z,6.21
2023-04-20T05:07:58.302Z,6.12
2023-04-20T05:10:24.723Z,6.08
2023-04-20T05:12:51.308Z,6.34
2023-04-20T05:15:17.734Z,6.84
2023-04-20T05:17:44.157Z,6.74
2023-04-20T05:20:10.591Z,6.23
2023-04-20T05:22:36.990Z,6.13
2023-04-20T05:25:03.398Z,6.45
2023-04-20T05:27:29.781Z,6.01
2023-04-20T05:29:59.899Z,6.01
2023-04-20T05:32:30.392Z,6.62
2023-04-20T05:34:56.777Z,6.49
2023-04-20T05:37:23.131Z,6.44
2023-04-20T05:39:49.530Z,6.38
2023-04-20T05:42:15.925Z,6.70
2023-04-20T05:44:42.359Z,6.73
2023-04-20T05:47:08.801Z,6.56
2023-04-20T05:49:35.220Z,6.96
2023-04-20T05:52:01.619Z,7.36
2023-04-20T05:54:27.970Z,7.42
2023-04-20T05:56:54.371Z,6.63
2023-04-20T05:59:20.860Z,6.60
2023-04-20T06:01:47.296Z,6.75
2023-04-20T06:04:13.877Z,6.54
2023-04-20T06:06:40.556Z,6.69
2023-04-20T06:09:07.194Z,7.04
2023-04-20T06:11:33.589Z,6.77
2023-04-20T06:13:59.956Z,6.69
2023-04-20T06:16:26.567Z,6.91
2023-04-20T06:18:53.480Z,6.81
2023-04-20T06:21:19.924Z,6.83
2023-04-20T06:23:46.373Z,6.76
2023-04-20T06:26:12.819Z,7.04
2023-04-20T06:28:39.207Z,6.86
2023-04-20T06:31:09.239Z,7.53
2023-04-20T06:33:40.379Z,7.49
2023-04-20T06:36:06.775Z,7.06
2023-04-20T06:38:33.183Z,7.27
2023-04-20T06:40:59.572Z,7.22
2023-04-20T06:43:25.932Z,7.91
2023-04-20T06:45:52.287Z,8.76
2023-04-20T06:48:31.663Z,7.82
2023-04-20T06:50:58.864Z,7.21
2023-04-20T06:53:25.299Z,7.52
2023-04-20T06:55:51.777Z,7.70
2023-04-20T06:58:18.294Z,7.44
2023-04-20T07:00:44.836Z,7.75
2023-04-20T07:03:11.490Z,8.75
2023-04-20T07:05:38.167Z,13.81
2023-04-20T07:08:04.606Z,9.12
2023-04-20T07:10:31.057Z,7.73
2023-04-20T07:12:57.920Z,8.01
2023-04-20T07:15:24.626Z,7.61
2023-04-20T07:17:51.097Z,7.71
2023-04-20T07:20:17.502Z,7.42
2023-04-20T07:22:43.987Z,8.07
2023-04-20T07:25:10.396Z,7.73
2023-04-20T07:27:36.792Z,7.99
2023-04-20T07:30:03.226Z,7.98
2023-04-20T07:32:29.683Z,7.51
2023-04-20T07:34:56.162Z,7.57
2023-04-20T07:37:22.575Z,7.78
2023-04-20T07:39:49.175Z,7.47
2023-04-20T07:42:15.802Z,7.40
2023-04-20T07:44:42.222Z,9.47
2023-04-20T07:47:08.701Z,8.35
2023-04-20T07:49:35.201Z,7.94
2023-04-20T07:52:15.024Z,7.79
2023-04-20T07:54:42.654Z,8.16
2023-04-20T07:57:12.189Z,7.63
2023-04-20T07:59:38.653Z,7.63
2023-04-20T08:02:05.122Z,7.94
2023-04-20T08:04:36.828Z,8.53
2023-04-20T08:07:03.427Z,7.85
2023-04-20T08:09:29.818Z,7.70
2023-04-20T08:11:56.393Z,7.77
2023-04-20T08:14:22.804Z,8.08
2023-04-20T08:16:49.231Z,7.57
2023-04-20T08:19:15.730Z,7.71
2023-04-20T08:21:42.133Z,7.85
2023-04-20T08:24:08.515Z,7.76
2023-04-20T08:26:34.934Z,8.68
2023-04-20T08:29:01.358Z,8.61
2023-04-20T08:31:27.860Z,8.35
2023-04-20T08:33:54.444Z,8.35
2023-04-20T08:36:21.101Z,8.89
2023-04-20T08:38:47.645Z,8.80
2023-04-20T08:41:14.093Z,9.13
2023-04-20T08:43:40.601Z,8.24
2023-04-20T08:46:07.100Z,8.37
2023-04-20T08:48:34.483Z,8.49
2023-04-20T08:51:00.989Z,8.51
2023-04-20T08:53:32.217Z,8.35
2023-04-20T08:55:58.699Z,8.23
2023-04-20T08:58:30.521Z,7.38
2023-04-20T09:00:57.029Z,7.64
2023-04-20T09:03:23.645Z,7.94
2023-04-20T09:05:50.406Z,8.66
2023-04-20T09:08:16.987Z,8.22
2023-04-20T09:10:43.446Z,8.31
2023-04-20T09:13:09.974Z,8.50
2023-04-20T09:15:36.552Z,10.52
2023-04-20T09:18:03.307Z,8.87
2023-04-20T09:20:29.863Z,8.67
2023-04-20T09:22:56.442Z,9.21
2023-04-20T09:25:23.070Z,9.06
2023-04-20T09:27:49.635Z,8.95
2023-04-20T09:30:16.109Z,9.30
2023-04-20T09:32:43.066Z,9.43
2023-04-20T09:35:09.638Z,21.88
2023-04-20T09:37:42.602Z,28.88
2023-04-20T09:40:09.434Z,9.97
2023-04-20T09:42:35.924Z,9.57
2023-04-20T09:45:04.781Z,9.12
2023-04-20T09:47:31.361Z,8.58
2023-04-20T09:50:00.029Z,10.52
2023-04-20T09:52:26.791Z,9.67
2023-04-20T09:54:53.288Z,9.18
2023-04-20T09:57:21.880Z,8.68
2023-04-20T09:59:48.568Z,8.45
2023-04-20T10:02:15.307Z,9.10
2023-04-20T10:04:42.275Z,8.61
2023-04-20T10:07:09.164Z,9.02
2023-04-20T10:09:35.626Z,9.40
2023-04-20T10:12:02.110Z,8.83
2023-04-20T10:14:31.455Z,8.46
2023-04-20T10:17:00.861Z,8.51
2023-04-20T10:19:30.623Z,8.57
2023-04-20T10:21:57.610Z,8.46
2023-04-20T10:24:26.229Z,8.59
2023-04-20T10:26:52.814Z,8.77
2023-04-20T10:29:19.456Z,8.54
2023-04-20T10:31:46.192Z,8.61
2023-04-20T10:34:12.694Z,8.33
2023-04-20T10:36:39.246Z,8.99
2023-04-20T10:39:05.980Z,8.90
2023-04-20T10:41:32.513Z,8.99
2023-04-20T10:43:58.976Z,9.85
2023-04-20T10:46:25.497Z,9.77
2023-04-20T10:48:52.005Z,9.23
2023-04-20T10:51:18.484Z,9.43
2023-04-20T10:53:45.037Z,9.55
2023-04-20T10:56:11.864Z,9.57
2023-04-20T10:58:38.380Z,9.58
2023-04-20T11:01:04.896Z,9.85
2023-04-20T11:03:31.530Z,9.32
2023-04-20T11:05:58.246Z,9.74
2023-04-20T11:08:24.763Z,8.93
2023-04-20T11:10:51.281Z,7.95
2023-04-20T11:13:17.767Z,8.48
2023-04-20T11:15:44.287Z,8.47
2023-04-20T11:18:10.940Z,8.46
2023-04-20T11:20:37.497Z,8.95
2023-04-20T11:23:04.030Z,8.38
2023-04-20T11:25:30.527Z,8.70
2023-04-20T11:27:57.013Z,8.44
2023-04-20T11:30:23.749Z,7.92
2023-04-20T11:32:50.264Z,7.83
2023-04-20T11:35:16.930Z,8.29
2023-04-20T11:37:43.460Z,8.28
2023-04-20T11:40:09.977Z,16.02
2023-04-20T11:42:36.466Z,13.61
2023-04-20T11:45:02.944Z,8.11
2023-04-20T11:47:29.450Z,8.19
2023-04-20T11:49:56.022Z,8.52
2023-04-20T11:52:22.493Z,8.61
2023-04-20T11:54:48.985Z,8.70
2023-04-20T11:57:15.434Z,8.15
2023-04-20T11:59:41.941Z,8.88
2023-04-20T12:02:08.464Z,8.25
2023-04-20T12:04:35.215Z,8.66
2023-04-20T12:07:01.810Z,9.12
2023-04-20T12:09:28.338Z,8.69
2023-04-20T12:11:54.811Z,8.46
2023-04-20T12:14:21.346Z,9.04
2023-04-20T12:16:47.863Z,9.55
2023-04-20T12:19:15.728Z,10.05
2023-04-20T12:21:42.262Z,9.29
2023-04-20T12:24:08.729Z,8.74
2023-04-20T12:26:38.521Z,8.63
2023-04-20T12:29:05.494Z,9.29
2023-04-20T12:31:32.095Z,9.06
2023-04-20T12:33:58.650Z,10.75
2023-04-20T12:36:25.293Z,10.79
2023-04-20T12:38:51.736Z,12.32
2023-04-20T12:41:18.361Z,11.44
2023-04-20T12:43:44.833Z,9.36
2023-04-20T12:46:11.393Z,8.87
2023-04-20T12:48:37.858Z,9.17
2023-04-20T12:51:04.331Z,9.92
2023-04-20T12:53:30.879Z,9.53
2023-04-20T12:56:01.062Z,9.11
2023-04-20T12:58:28.114Z,9.51
2023-04-20T13:00:54.649Z,9.29
2023-04-20T13:03:21.786Z,9.77
2023-04-20T13:05:48.386Z,8.87
2023-04-20T13:08:14.846Z,8.28
2023-04-20T13:10:41.299Z,9.10
2023-04-20T13:13:08.040Z,8.49
2023-04-20T13:15:38.924Z,8.78
2023-04-20T13:18:06.313Z,8.48
2023-04-20T13:20:32.815Z,8.91
2023-04-20T13:22:59.284Z,9.26
2023-04-20T13:25:25.824Z,8.83
2023-04-20T13:27:52.321Z,9.04
2023-04-20T13:30:18.777Z,9.80
2023-04-20T13:32:45.300Z,9.24
2023-04-20T13:35:11.790Z,9.00
2023-04-20T13:37:39.210Z,9.25
2023-04-20T13:40:05.976Z,9.37
2023-04-20T13:42:32.466Z,9.03
2023-04-20T13:44:58.910Z,8.77
2023-04-20T13:47:25.425Z,8.90
2023-04-20T13:49:51.937Z,8.58
2023-04-20T13:52:18.416Z,8.64
2023-04-20T13:54:44.957Z,8.10
2023-04-20T13:57:11.414Z,7.92
2023-04-20T13:59:37.963Z,7.91
2023-04-20T14:02:04.542Z,7.33
2023-04-20T14:04:31.017Z,7.20
2023-04-20T14:06:57.430Z,7.55
2023-04-20T14:09:23.929Z,7.09
2023-04-20T14:11:54.103Z,7.01
2023-04-20T14:14:22.303Z,7.24
2023-04-20T14:16:48.726Z,7.05
2023-04-20T14:19:15.121Z,6.90
2023-04-20T14:21:41.509Z,7.00
2023-04-20T14:24:07.925Z,7.31
2023-04-20T14:26:34.538Z,6.70
2023-04-20T14:29:00.962Z,6.38
2023-04-20T14:31:27.412Z,6.48
2023-04-20T14:33:53.943Z,6.15
2023-04-20T14:36:20.555Z,5.80
2023-04-20T14:38:46.983Z,5.60
2023-04-20T14:41:13.521Z,5.93
2023-04-20T14:43:40.191Z,5.93
2023-04-20T14:46:06.644Z,5.47
2023-04-20T14:48:33.232Z,5.46
2023-04-20T14:51:02.684Z,6.54
2023-04-20T14:53:30.102Z,7.07
2023-04-20T14:55:57.318Z,6.99
2023-04-20T15:01:10.234Z,6.02
2023-04-20T15:03:37.039Z,6.10
2023-04-20T15:06:07.036Z,7.92
2023-04-20T15:08:33.572Z,6.48
2023-04-20T15:11:00.040Z,6.49
2023-04-20T15:13:26.461Z,6.49
2023-04-20T15:15:55.091Z,9.03
2023-04-20T15:18:21.958Z,6.53
2023-04-20T15:20:48.407Z,6.30
2023-04-20T15:23:15.084Z,6.33
2023-04-20T15:25:41.682Z,6.67
2023-04-20T15:28:16.417Z,6.89
2023-04-20T15:30:43.147Z,6.87
2023-04-20T15:33:09.790Z,6.63
2023-04-20T15:35:36.534Z,6.06
2023-04-20T15:38:03.127Z,6.31
2023-04-20T15:40:29.691Z,6.39
2023-04-20T15:42:56.113Z,6.82
2023-04-20T15:45:22.584Z,6.83
2023-04-20T15:47:49.030Z,7.00
2023-04-20T15:50:15.465Z,6.80
2023-04-20T15:52:41.955Z,6.74
2023-04-20T15:55:08.495Z,5.93
2023-04-20T15:57:34.959Z,6.01
2023-04-20T16:00:01.391Z,6.35
2023-04-20T16:02:27.995Z,6.08
2023-04-20T16:04:54.695Z,5.87
2023-04-20T16:07:21.487Z,6.76
2023-04-20T16:09:48.046Z,5.42
2023-04-20T16:12:14.549Z,5.82
2023-04-20T16:14:41.108Z,5.86
2023-04-20T16:17:07.676Z,5.38
2023-04-20T16:19:34.202Z,5.95
2023-04-20T16:22:02.077Z,5.57
2023-04-20T16:24:29.218Z,5.66
2023-04-20T16:26:59.490Z,5.49
2023-04-20T16:29:31.308Z,5.16
2023-04-20T16:31:58.042Z,5.80
2023-04-20T16:34:26.890Z,10.54
2023-04-20T16:36:54.345Z,6.31
2023-04-20T16:39:24.398Z,5.57
2023-04-20T16:41:51.183Z,5.75
2023-04-20T16:44:18.131Z,6.33
2023-04-20T16:46:45.148Z,6.50
2023-04-20T16:49:11.616Z,6.55
2023-04-20T16:51:38.036Z,6.34
2023-04-20T16:54:04.712Z,6.71
2023-04-20T16:56:31.173Z,6.96
2023-04-20T16:59:00.820Z,7.11
2023-04-20T17:01:27.369Z,9.61
2023-04-20T17:03:53.987Z,8.09
2023-04-20T17:06:20.584Z,7.49
2023-04-20T17:08:47.067Z,7.47
2023-04-20T17:11:13.601Z,7.64
2023-04-20T17:13:43.209Z,7.59
2023-04-20T17:16:10.883Z,7.44
2023-04-20T17:18:38.018Z,8.15
2023-04-20T17:21:11.664Z,7.42
2023-04-20T17:23:38.212Z,7.81
2023-04-20T17:26:04.603Z,7.88
2023-04-20T17:28:31.495Z,7.86
2023-04-20T17:30:58.915Z,8.18
2023-04-20T17:33:31.627Z,7.73
2023-04-20T17:36:01.589Z,7.88
2023-04-20T17:38:28.044Z,8.13
2023-04-20T17:40:54.761Z,8.32
2023-04-20T17:43:21.638Z,8.22
2023-04-20T17:45:48.186Z,7.30
2023-04-20T17:48:17.134Z,7.60
2023-04-20T17:50:50.578Z,7.63
2023-04-20T17:53:24.010Z,6.93
2023-04-20T17:55:57.138Z,7.14
2023-04-20T17:58:26.771Z,6.66
2023-04-20T18:00:56.640Z,6.61
2023-04-20T18:03:25.655Z,6.54
2023-04-20T18:05:54.200Z,6.48
2023-04-20T18:08:21.270Z,6.34
2023-04-20T18:10:50.789Z,6.27
2023-04-20T18:13:17.342Z,7.07
2023-04-20T18:15:43.904Z,6.53
2023-04-20T18:18:19.910Z,6.59
2023-04-20T18:20:48.760Z,7.28
2023-04-20T18:23:24.724Z,7.12
2023-04-20T18:25:53.658Z,6.98
2023-04-20T18:28:21.903Z,7.07
2023-04-20T18:30:51.480Z,7.23
2023-04-20T18:33:18.007Z,7.11
2023-04-20T18:35:46.943Z,7.38
2023-04-20T18:38:13.343Z,7.45
2023-04-20T18:40:45.051Z,7.29
2023-04-20T18:43:11.761Z,7.69
2023-04-20T18:45:38.447Z,7.28
2023-04-20T18:48:04.957Z,7.80
2023-04-20T18:50:31.707Z,8.08
2023-04-20T18:52:58.056Z,8.25
2023-04-20T18:55:24.498Z,7.40
2023-04-20T18:57:51.050Z,7.91
2023-04-20T19:00:19.415Z,8.05
2023-04-20T19:02:46.301Z,7.67
2023-04-20T19:05:14.824Z,8.68
2023-04-20T19:07:41.289Z,17.72
2023-04-20T19:10:07.977Z,8.27
2023-04-20T19:12:34.465Z,8.04
2023-04-20T19:15:08.159Z,8.15
2023-04-20T19:17:35.812Z,7.98
2023-04-20T19:20:02.612Z,8.09
2023-04-20T19:22:31.587Z,7.91
2023-04-20T19:24:58.113Z,8.15
2023-04-20T19:27:24.661Z,8.38
2023-04-20T19:29:51.260Z,8.64
2023-04-20T19:32:18.074Z,8.63
2023-04-20T19:34:44.578Z,8.68
2023-04-20T19:37:13.833Z,8.79
2023-04-20T19:39:43.698Z,8.25
2023-04-20T19:42:10.464Z,8.56
2023-04-20T19:44:37.635Z,8.55
2023-04-20T19:47:04.212Z,8.60
2023-04-20T19:49:30.860Z,8.76
2023-04-20T19:52:04.189Z,13.95
2023-04-20T19:54:34.177Z,13.28
2023-04-20T19:57:00.893Z,8.67
2023-04-20T19:59:27.548Z,8.53
2023-04-20T20:01:54.241Z,8.29
2023-04-20T20:04:23.748Z,9.33
2023-04-20T20:06:50.516Z,9.16
2023-04-20T20:09:17.263Z,8.63
2023-04-20T20:14:37.135Z,8.72
2023-04-20T20:17:04.615Z,8.62
2023-04-20T20:19:37.212Z,8.65
2023-04-20T20:22:04.031Z,8.61
2023-04-20T20:24:33.038Z,9.10
2023-04-20T20:27:03.393Z,9.09
2023-04-20T20:29:33.062Z,8.78
2023-04-20T20:31:59.735Z,8.72
2023-04-20T20:34:29.501Z,15.45
2023-04-20T20:37:08.093Z,13.47
2023-04-20T20:39:35.167Z,8.86
2023-04-20T20:42:06.414Z,8.81
2023-04-20T20:44:35.376Z,8.99
2023-04-20T20:47:02.392Z,8.84
2023-04-20T20:49:30.037Z,8.50
2023-04-20T20:54:36.792Z,9.19
2023-04-20T20:57:11.821Z,9.87
2023-04-20T20:59:38.585Z,9.93
2023-04-20T21:02:05.242Z,10.04
2023-04-20T21:04:36.606Z,10.19
2023-04-20T21:07:06.035Z,9.86
2023-04-20T21:09:33.044Z,10.51
2023-04-20T21:12:09.060Z,10.20
2023-04-20T21:14:35.732Z,11.83
2023-04-20T21:17:02.574Z,12.97
2023-04-20T21:19:34.107Z,10.91
2023-04-20T21:22:00.930Z,10.81
2023-04-20T21:24:27.889Z,10.76
2023-04-20T21:26:57.477Z,11.32
2023-04-20T21:29:24.213Z,11.02
2023-04-20T21:31:53.873Z,11.02
2023-04-20T21:34:20.317Z,11.28
2023-04-20T21:36:58.757Z,11.31
2023-04-20T21:39:25.708Z,11.62
2023-04-20T21:41:55.339Z,11.56
2023-04-20T21:44:25.092Z,11.03
2023-04-20T21:46:54.524Z,11.31
2023-04-20T21:49:23.126Z,11.45
2023-04-20T21:51:50.777Z,11.77
2023-04-20T21:54:26.446Z,11.41
2023-04-20T21:56:53.104Z,11.53
2023-04-20T21:59:20.257Z,11.79
2023-04-20T22:04:33.442Z,11.57
2023-04-20T22:07:03.097Z,11.90
2023-04-20T22:09:32.661Z,11.41
2023-04-20T22:12:05.792Z,11.76
2023-04-20T22:14:32.758Z,11.80
2023-04-20T22:17:00.008Z,12.05
2023-04-20T22:19:26.676Z,11.66
2023-04-20T22:21:54.871Z,12.03
2023-04-20T22:24:27.855Z,11.42
2023-04-20T22:26:56.332Z,11.30
2023-04-20T22:29:23.204Z,11.56
2023-04-20T22:31:57.632Z,11.69
2023-04-20T22:34:24.055Z,11.22
2023-04-20T22:36:53.589Z,11.29
2023-04-20T22:39:20.250Z,11.10
2023-04-20T22:41:51.795Z,11.20
2023-04-20T22:44:18.219Z,11.05
2023-04-20T22:46:44.649Z,10.90
2023-04-20T22:49:11.032Z,11.25
2023-04-20T22:51:37.467Z,10.29
2023-04-20T22:54:03.865Z,9.37
2023-04-20T22:56:36.524Z,9.27
2023-04-20T22:59:03.932Z,8.72
2023-04-20T23:01:30.377Z,7.96
2023-04-20T23:04:06.648Z,7.94
2023-04-20T23:06:33.221Z,7.61
2023-04-20T23:08:59.632Z,7.72
2023-04-20T23:11:29.308Z,7.41
2023-04-20T23:13:55.697Z,7.51
2023-04-20T23:16:22.143Z,7.12
2023-04-20T23:18:54.262Z,7.36
2023-04-20T23:21:20.630Z,7.79
2023-04-20T23:23:51.657Z,7.99
2023-04-20T23:26:21.246Z,8.00
2023-04-20T23:28:47.667Z,9.02
2023-04-20T23:31:14.094Z,8.40
2023-04-20T23:33:40.553Z,9.38
2023-04-20T23:36:07.113Z,9.82
2023-04-20T23:38:33.536Z,9.57
2023-04-20T23:40:59.903Z,9.95
2023-04-20T23:43:32.491Z,10.89
2023-04-20T23:45:59.026Z,10.08
2023-04-20T23:48:31.359Z,10.27
2023-04-20T23:50:57.731Z,9.97
2023-04-20T23:53:33.164Z,9.93
2023-04-20T23:55:59.552Z,9.80
2023-04-20T23:58:30.750Z,10.16
